sensor_id;sensor_type;location;lat;lon;timestamp;P1;durP1;ratioP1;P2;durP2;ratioP2
53775;SDS011;44276;49.534;6.378;2023-02-01T00:00:13;27.25;;;10.75;;
53775;SDS011;44276;49.534;6.378;2023-02-01T00:02:46;25.27;;;10.23;;
53775;SDS011;44276;49.534;6.378;2023-02-01T00:05:29;16.45;;;7.00;;
53775;SDS011;44276;49.534;6.378;2023-02-01T00:08:03;33.47;;;11.77;;
53775;SDS011;44276;49.534;6.378;2023-02-01T00:10:33;24.80;;;7.68;;
53775;SDS011;44276;49.534;6.378;2023-02-01T00:13:04;19.50;;;8.38;;
53775;SDS011;44276;49.534;6.378;2023-02-01T00:15:32;15.90;;;6.95;;
53775;SDS011;44276;49.534;6.378;2023-02-01T00:18:00;22.52;;;9.20;;
53775;SDS011;44276;49.534;6.378;2023-02-01T00:20:28;21.40;;;8.25;;
53775;SDS011;44276;49.534;6.378;2023-02-01T00:22:56;22.40;;;7.00;;
53775;SDS011;44276;49.534;6.378;2023-02-01T00:25:25;21.00;;;7.88;;
53775;SDS011;44276;49.534;6.378;2023-02-01T00:27:53;24.40;;;8.20;;
53775;SDS011;44276;49.534;6.378;2023-02-01T00:30:24;16.60;;;7.40;;
53775;SDS011;44276;49.534;6.378;2023-02-01T00:32:52;21.85;;;7.55;;
53775;SDS011;44276;49.534;6.378;2023-02-01T00:35:21;18.30;;;7.60;;
53775;SDS011;44276;49.534;6.378;2023-02-01T00:37:49;25.52;;;9.00;;
53775;SDS011;44276;49.534;6.378;2023-02-01T00:40:17;16.95;;;8.25;;
53775;SDS011;44276;49.534;6.378;2023-02-01T00:42:46;26.08;;;8.55;;
53775;SDS011;44276;49.534;6.378;2023-02-01T00:45:15;26.00;;;7.95;;
53775;SDS011;44276;49.534;6.378;2023-02-01T00:47:44;17.70;;;8.07;;
53775;SDS011;44276;49.534;6.378;2023-02-01T00:50:13;18.35;;;9.77;;
53775;SDS011;44276;49.534;6.378;2023-02-01T00:52:41;25.45;;;9.75;;
53775;SDS011;44276;49.534;6.378;2023-02-01T00:55:10;23.67;;;10.40;;
53775;SDS011;44276;49.534;6.378;2023-02-01T00:57:38;17.85;;;8.13;;
53775;SDS011;44276;49.534;6.378;2023-02-01T01:00:07;17.00;;;7.85;;
53775;SDS011;44276;49.534;6.378;2023-02-01T01:02:37;22.05;;;8.10;;
53775;SDS011;44276;49.534;6.378;2023-02-01T01:05:07;19.65;;;9.52;;
53775;SDS011;44276;49.534;6.378;2023-02-01T01:07:35;18.45;;;8.13;;
53775;SDS011;44276;49.534;6.378;2023-02-01T01:10:04;22.55;;;8.93;;
53775;SDS011;44276;49.534;6.378;2023-02-01T01:12:33;17.08;;;7.75;;
53775;SDS011;44276;49.534;6.378;2023-02-01T01:15:01;20.80;;;9.02;;
53775;SDS011;44276;49.534;6.378;2023-02-01T01:17:30;20.08;;;8.05;;
53775;SDS011;44276;49.534;6.378;2023-02-01T01:19:59;18.38;;;7.85;;
53775;SDS011;44276;49.534;6.378;2023-02-01T01:22:28;15.05;;;7.35;;
53775;SDS011;44276;49.534;6.378;2023-02-01T01:24:56;28.23;;;10.43;;
53775;SDS011;44276;49.534;6.378;2023-02-01T01:27:24;22.50;;;8.13;;
53775;SDS011;44276;49.534;6.378;2023-02-01T01:29:52;16.13;;;8.50;;
53775;SDS011;44276;49.534;6.378;2023-02-01T01:32:20;23.75;;;8.65;;
53775;SDS011;44276;49.534;6.378;2023-02-01T01:34:48;20.15;;;8.57;;
53775;SDS011;44276;49.534;6.378;2023-02-01T01:37:16;18.92;;;8.80;;
53775;SDS011;44276;49.534;6.378;2023-02-01T01:39:46;20.83;;;8.45;;
53775;SDS011;44276;49.534;6.378;2023-02-01T01:42:14;17.90;;;9.77;;
53775;SDS011;44276;49.534;6.378;2023-02-01T01:44:59;25.25;;;8.43;;
53775;SDS011;44276;49.534;6.378;2023-02-01T01:47:31;13.82;;;8.57;;
53775;SDS011;44276;49.534;6.378;2023-02-01T01:50:04;17.58;;;9.48;;
53775;SDS011;44276;49.534;6.378;2023-02-01T01:52:37;15.57;;;7.97;;
53775;SDS011;44276;49.534;6.378;2023-02-01T01:55:09;21.65;;;8.80;;
53775;SDS011;44276;49.534;6.378;2023-02-01T01:57:39;21.95;;;8.40;;
53775;SDS011;44276;49.534;6.378;2023-02-01T02:00:14;17.42;;;8.90;;
53775;SDS011;44276;49.534;6.378;2023-02-01T02:02:47;25.25;;;8.00;;
53775;SDS011;44276;49.534;6.378;2023-02-01T02:05:22;23.67;;;10.48;;
53775;SDS011;44276;49.534;6.378;2023-02-01T02:07:50;31.55;;;11.23;;
53775;SDS011;44276;49.534;6.378;2023-02-01T02:10:26;25.27;;;10.02;;
53775;SDS011;44276;49.534;6.378;2023-02-01T02:13:09;23.00;;;9.85;;
53775;SDS011;44276;49.534;6.378;2023-02-01T02:15:40;20.33;;;9.95;;
53775;SDS011;44276;49.534;6.378;2023-02-01T02:18:18;20.05;;;9.15;;
53775;SDS011;44276;49.534;6.378;2023-02-01T02:21:10;20.95;;;9.75;;
53775;SDS011;44276;49.534;6.378;2023-02-01T02:27:14;29.08;;;10.98;;
53775;SDS011;44276;49.534;6.378;2023-02-01T02:36:16;25.50;;;9.88;;
53775;SDS011;44276;49.534;6.378;2023-02-01T02:39:02;16.30;;;8.45;;
53775;SDS011;44276;49.534;6.378;2023-02-01T02:41:41;24.00;;;9.70;;
53775;SDS011;44276;49.534;6.378;2023-02-01T02:44:41;28.30;;;12.02;;
53775;SDS011;44276;49.534;6.378;2023-02-01T02:47:40;26.23;;;10.07;;
53775;SDS011;44276;49.534;6.378;2023-02-01T02:50:20;22.13;;;8.70;;
53775;SDS011;44276;49.534;6.378;2023-02-01T02:53:12;38.60;;;11.70;;
53775;SDS011;44276;49.534;6.378;2023-02-01T02:56:02;28.67;;;8.70;;
53775;SDS011;44276;49.534;6.378;2023-02-01T02:58:51;30.05;;;9.50;;
53775;SDS011;44276;49.534;6.378;2023-02-01T03:01:39;26.80;;;8.13;;
53775;SDS011;44276;49.534;6.378;2023-02-01T03:04:26;21.00;;;8.02;;
53775;SDS011;44276;49.534;6.378;2023-02-01T03:06:56;22.42;;;9.10;;
53775;SDS011;44276;49.534;6.378;2023-02-01T03:09:26;20.67;;;9.45;;
53775;SDS011;44276;49.534;6.378;2023-02-01T03:12:01;17.67;;;8.75;;
53775;SDS011;44276;49.534;6.378;2023-02-01T03:14:54;24.30;;;8.73;;
53775;SDS011;44276;49.534;6.378;2023-02-01T03:17:31;16.33;;;8.20;;
53775;SDS011;44276;49.534;6.378;2023-02-01T03:20:06;29.10;;;9.17;;
53775;SDS011;44276;49.534;6.378;2023-02-01T03:22:41;23.50;;;7.80;;
53775;SDS011;44276;49.534;6.378;2023-02-01T03:25:14;16.23;;;8.65;;
53775;SDS011;44276;49.534;6.378;2023-02-01T03:27:51;24.38;;;8.65;;
53775;SDS011;44276;49.534;6.378;2023-02-01T03:30:26;25.25;;;10.30;;
53775;SDS011;44276;49.534;6.378;2023-02-01T03:33:02;21.83;;;10.13;;
53775;SDS011;44276;49.534;6.378;2023-02-01T03:35:40;18.10;;;8.85;;
53775;SDS011;44276;49.534;6.378;2023-02-01T03:38:19;23.75;;;9.02;;
53775;SDS011;44276;49.534;6.378;2023-02-01T03:40:53;26.42;;;11.05;;
53775;SDS011;44276;49.534;6.378;2023-02-01T03:43:33;30.88;;;10.70;;
53775;SDS011;44276;49.534;6.378;2023-02-01T03:46:15;21.67;;;9.18;;
53775;SDS011;44276;49.534;6.378;2023-02-01T03:48:52;21.90;;;9.45;;
53775;SDS011;44276;49.534;6.378;2023-02-01T03:51:22;24.77;;;10.27;;
53775;SDS011;44276;49.534;6.378;2023-02-01T03:53:54;22.50;;;11.65;;
53775;SDS011;44276;49.534;6.378;2023-02-01T03:56:24;20.35;;;10.07;;
53775;SDS011;44276;49.534;6.378;2023-02-01T03:58:55;24.65;;;10.90;;
53775;SDS011;44276;49.534;6.378;2023-02-01T04:01:26;21.98;;;10.60;;
53775;SDS011;44276;49.534;6.378;2023-02-01T04:03:57;15.10;;;7.97;;
53775;SDS011;44276;49.534;6.378;2023-02-01T04:06:25;22.10;;;11.05;;
53775;SDS011;44276;49.534;6.378;2023-02-01T04:08:55;28.67;;;10.43;;
53775;SDS011;44276;49.534;6.378;2023-02-01T04:11:23;21.92;;;10.13;;
53775;SDS011;44276;49.534;6.378;2023-02-01T04:13:51;21.00;;;8.68;;
53775;SDS011;44276;49.534;6.378;2023-02-01T04:16:19;29.15;;;9.88;;
53775;SDS011;44276;49.534;6.378;2023-02-01T04:18:47;22.42;;;10.98;;
53775;SDS011;44276;49.534;6.378;2023-02-01T04:21:15;25.27;;;9.68;;
53775;SDS011;44276;49.534;6.378;2023-02-01T04:23:44;21.80;;;9.07;;
53775;SDS011;44276;49.534;6.378;2023-02-01T04:26:14;20.58;;;9.43;;
53775;SDS011;44276;49.534;6.378;2023-02-01T04:28:42;27.65;;;10.90;;
53775;SDS011;44276;49.534;6.378;2023-02-01T04:31:10;25.23;;;9.25;;
53775;SDS011;44276;49.534;6.378;2023-02-01T04:33:38;19.52;;;9.10;;
53775;SDS011;44276;49.534;6.378;2023-02-01T04:36:07;18.27;;;8.35;;
53775;SDS011;44276;49.534;6.378;2023-02-01T04:38:35;27.05;;;8.60;;
53775;SDS011;44276;49.534;6.378;2023-02-01T04:41:03;21.00;;;9.60;;
53775;SDS011;44276;49.534;6.378;2023-02-01T04:43:33;24.92;;;8.57;;
53775;SDS011;44276;49.534;6.378;2023-02-01T04:46:01;23.80;;;8.15;;
53775;SDS011;44276;49.534;6.378;2023-02-01T04:48:29;24.48;;;9.13;;
53775;SDS011;44276;49.534;6.378;2023-02-01T04:50:57;22.70;;;7.60;;
53775;SDS011;44276;49.534;6.378;2023-02-01T04:53:25;18.05;;;7.57;;
53775;SDS011;44276;49.534;6.378;2023-02-01T04:55:53;21.85;;;8.27;;
53775;SDS011;44276;49.534;6.378;2023-02-01T04:58:21;26.75;;;9.85;;
53775;SDS011;44276;49.534;6.378;2023-02-01T05:00:50;26.80;;;9.57;;
53775;SDS011;44276;49.534;6.378;2023-02-01T05:03:19;26.70;;;8.65;;
53775;SDS011;44276;49.534;6.378;2023-02-01T05:05:47;21.00;;;7.50;;
53775;SDS011;44276;49.534;6.378;2023-02-01T05:08:15;19.70;;;7.57;;
53775;SDS011;44276;49.534;6.378;2023-02-01T05:10:44;17.63;;;7.07;;
53775;SDS011;44276;49.534;6.378;2023-02-01T05:13:12;19.58;;;6.93;;
53775;SDS011;44276;49.534;6.378;2023-02-01T05:15:59;21.08;;;7.25;;
53775;SDS011;44276;49.534;6.378;2023-02-01T05:18:27;17.67;;;7.65;;
53775;SDS011;44276;49.534;6.378;2023-02-01T05:20:55;14.30;;;5.68;;
53775;SDS011;44276;49.534;6.378;2023-02-01T05:23:24;19.80;;;7.85;;
53775;SDS011;44276;49.534;6.378;2023-02-01T05:25:52;17.30;;;6.53;;
53775;SDS011;44276;49.534;6.378;2023-02-01T05:28:25;16.27;;;6.60;;
53775;SDS011;44276;49.534;6.378;2023-02-01T05:30:54;29.17;;;5.90;;
53775;SDS011;44276;49.534;6.378;2023-02-01T05:33:24;16.15;;;5.68;;
53775;SDS011;44276;49.534;6.378;2023-02-01T05:35:52;25.58;;;6.10;;
53775;SDS011;44276;49.534;6.378;2023-02-01T05:38:20;17.20;;;5.00;;
53775;SDS011;44276;49.534;6.378;2023-02-01T05:40:48;18.27;;;6.95;;
53775;SDS011;44276;49.534;6.378;2023-02-01T05:43:16;17.98;;;4.97;;
53775;SDS011;44276;49.534;6.378;2023-02-01T05:45:44;22.85;;;6.65;;
53775;SDS011;44276;49.534;6.378;2023-02-01T05:48:12;13.05;;;4.43;;
53775;SDS011;44276;49.534;6.378;2023-02-01T05:50:42;21.05;;;5.65;;
53775;SDS011;44276;49.534;6.378;2023-02-01T05:53:10;25.08;;;7.55;;
53775;SDS011;44276;49.534;6.378;2023-02-01T05:55:39;18.15;;;7.22;;
53775;SDS011;44276;49.534;6.378;2023-02-01T05:58:09;12.73;;;4.30;;
53775;SDS011;44276;49.534;6.378;2023-02-01T06:00:38;24.75;;;5.68;;
53775;SDS011;44276;49.534;6.378;2023-02-01T06:03:07;16.17;;;6.10;;
53775;SDS011;44276;49.534;6.378;2023-02-01T06:05:35;25.02;;;6.45;;
53775;SDS011;44276;49.534;6.378;2023-02-01T06:08:05;17.45;;;6.72;;
53775;SDS011;44276;49.534;6.378;2023-02-01T06:10:33;15.32;;;5.78;;
53775;SDS011;44276;49.534;6.378;2023-02-01T06:13:02;16.23;;;6.18;;
53775;SDS011;44276;49.534;6.378;2023-02-01T06:15:31;12.27;;;4.50;;
53775;SDS011;44276;49.534;6.378;2023-02-01T06:17:59;18.13;;;5.60;;
53775;SDS011;44276;49.534;6.378;2023-02-01T06:20:28;18.40;;;5.60;;
53775;SDS011;44276;49.534;6.378;2023-02-01T06:22:56;22.23;;;6.70;;
53775;SDS011;44276;49.534;6.378;2023-02-01T06:25:26;20.00;;;5.53;;
53775;SDS011;44276;49.534;6.378;2023-02-01T06:27:54;18.00;;;5.00;;
53775;SDS011;44276;49.534;6.378;2023-02-01T06:30:22;16.55;;;6.40;;
53775;SDS011;44276;49.534;6.378;2023-02-01T06:32:52;15.60;;;5.60;;
53775;SDS011;44276;49.534;6.378;2023-02-01T06:35:21;25.40;;;3.95;;
53775;SDS011;44276;49.534;6.378;2023-02-01T06:37:49;11.52;;;5.90;;
53775;SDS011;44276;49.534;6.378;2023-02-01T06:40:31;17.60;;;4.68;;
53775;SDS011;44276;49.534;6.378;2023-02-01T06:43:02;10.88;;;3.10;;
53775;SDS011;44276;49.534;6.378;2023-02-01T06:45:31;19.60;;;3.58;;
53775;SDS011;44276;49.534;6.378;2023-02-01T06:47:59;11.82;;;3.40;;
53775;SDS011;44276;49.534;6.378;2023-02-01T06:50:27;14.18;;;4.40;;
53775;SDS011;44276;49.534;6.378;2023-02-01T06:52:55;11.80;;;3.55;;
53775;SDS011;44276;49.534;6.378;2023-02-01T06:55:24;11.82;;;3.78;;
53775;SDS011;44276;49.534;6.378;2023-02-01T06:57:54;13.35;;;3.70;;
53775;SDS011;44276;49.534;6.378;2023-02-01T07:00:23;15.30;;;3.70;;
53775;SDS011;44276;49.534;6.378;2023-02-01T07:02:52;15.48;;;3.55;;
53775;SDS011;44276;49.534;6.378;2023-02-01T07:05:21;13.25;;;4.85;;
53775;SDS011;44276;49.534;6.378;2023-02-01T07:07:49;9.52;;;5.07;;
53775;SDS011;44276;49.534;6.378;2023-02-01T07:10:17;17.23;;;4.07;;
53775;SDS011;44276;49.534;6.378;2023-02-01T07:12:46;18.77;;;4.80;;
53775;SDS011;44276;49.534;6.378;2023-02-01T07:15:15;17.58;;;4.90;;
53775;SDS011;44276;49.534;6.378;2023-02-01T07:17:44;9.15;;;3.03;;
53775;SDS011;44276;49.534;6.378;2023-02-01T07:20:13;12.88;;;5.50;;
53775;SDS011;44276;49.534;6.378;2023-02-01T07:22:42;12.68;;;4.93;;
53775;SDS011;44276;49.534;6.378;2023-02-01T07:25:10;14.40;;;4.30;;
53775;SDS011;44276;49.534;6.378;2023-02-01T07:27:38;19.15;;;3.10;;
53775;SDS011;44276;49.534;6.378;2023-02-01T07:30:07;13.75;;;4.38;;
53775;SDS011;44276;49.534;6.378;2023-02-01T07:32:40;17.33;;;4.40;;
53775;SDS011;44276;49.534;6.378;2023-02-01T07:35:08;14.82;;;5.10;;
53775;SDS011;44276;49.534;6.378;2023-02-01T07:37:36;12.70;;;4.18;;
53775;SDS011;44276;49.534;6.378;2023-02-01T07:40:05;22.13;;;5.32;;
53775;SDS011;44276;49.534;6.378;2023-02-01T07:42:34;9.65;;;3.17;;
53775;SDS011;44276;49.534;6.378;2023-02-01T07:45:03;24.80;;;3.08;;
53775;SDS011;44276;49.534;6.378;2023-02-01T07:47:48;11.70;;;3.55;;
53775;SDS011;44276;49.534;6.378;2023-02-01T07:50:19;15.70;;;2.70;;
53775;SDS011;44276;49.534;6.378;2023-02-01T07:52:48;9.60;;;2.70;;
53775;SDS011;44276;49.534;6.378;2023-02-01T07:55:16;14.25;;;4.40;;
53775;SDS011;44276;49.534;6.378;2023-02-01T07:57:44;15.18;;;3.28;;
53775;SDS011;44276;49.534;6.378;2023-02-01T08:00:13;20.00;;;4.57;;
53775;SDS011;44276;49.534;6.378;2023-02-01T08:03:12;22.23;;;3.70;;
53775;SDS011;44276;49.534;6.378;2023-02-01T08:05:42;13.80;;;4.18;;
53775;SDS011;44276;49.534;6.378;2023-02-01T08:08:11;13.88;;;4.00;;
53775;SDS011;44276;49.534;6.378;2023-02-01T08:10:39;22.48;;;5.00;;
53775;SDS011;44276;49.534;6.378;2023-02-01T08:13:07;20.05;;;3.13;;
53775;SDS011;44276;49.534;6.378;2023-02-01T08:15:36;11.30;;;2.95;;
53775;SDS011;44276;49.534;6.378;2023-02-01T08:18:04;17.45;;;3.72;;
53775;SDS011;44276;49.534;6.378;2023-02-01T08:20:34;11.00;;;4.72;;
53775;SDS011;44276;49.534;6.378;2023-02-01T08:23:07;6.50;;;2.55;;
53775;SDS011;44276;49.534;6.378;2023-02-01T08:25:35;12.80;;;3.95;;
53775;SDS011;44276;49.534;6.378;2023-02-01T08:28:05;28.10;;;3.97;;
53775;SDS011;44276;49.534;6.378;2023-02-01T08:30:33;17.80;;;3.20;;
53775;SDS011;44276;49.534;6.378;2023-02-01T08:33:04;21.00;;;4.70;;
53775;SDS011;44276;49.534;6.378;2023-02-01T08:35:35;8.20;;;3.33;;
53775;SDS011;44276;49.534;6.378;2023-02-01T08:38:09;15.95;;;3.10;;
53775;SDS011;44276;49.534;6.378;2023-02-01T08:40:37;18.63;;;4.78;;
53775;SDS011;44276;49.534;6.378;2023-02-01T08:43:07;28.20;;;5.95;;
53775;SDS011;44276;49.534;6.378;2023-02-01T08:45:35;15.70;;;4.65;;
53775;SDS011;44276;49.534;6.378;2023-02-01T08:48:04;19.50;;;4.35;;
53775;SDS011;44276;49.534;6.378;2023-02-01T08:50:32;14.55;;;3.25;;
53775;SDS011;44276;49.534;6.378;2023-02-01T08:53:02;12.73;;;3.55;;
53775;SDS011;44276;49.534;6.378;2023-02-01T08:55:30;33.65;;;4.25;;
53775;SDS011;44276;49.534;6.378;2023-02-01T08:57:58;7.18;;;2.92;;
53775;SDS011;44276;49.534;6.378;2023-02-01T09:00:26;20.38;;;3.35;;
53775;SDS011;44276;49.534;6.378;2023-02-01T09:02:55;21.67;;;3.47;;
53775;SDS011;44276;49.534;6.378;2023-02-01T09:05:23;13.82;;;3.22;;
53775;SDS011;44276;49.534;6.378;2023-02-01T09:08:01;7.82;;;2.92;;
53775;SDS011;44276;49.534;6.378;2023-02-01T09:10:30;21.95;;;4.65;;
53775;SDS011;44276;49.534;6.378;2023-02-01T09:13:00;16.20;;;4.13;;
53775;SDS011;44276;49.534;6.378;2023-02-01T09:15:30;11.75;;;3.17;;
53775;SDS011;44276;49.534;6.378;2023-02-01T09:17:58;15.30;;;2.67;;
53775;SDS011;44276;49.534;6.378;2023-02-01T09:20:26;18.30;;;4.85;;
53775;SDS011;44276;49.534;6.378;2023-02-01T09:22:55;14.25;;;3.75;;
53775;SDS011;44276;49.534;6.378;2023-02-01T09:25:26;11.75;;;2.65;;
53775;SDS011;44276;49.534;6.378;2023-02-01T09:27:54;18.92;;;3.55;;
53775;SDS011;44276;49.534;6.378;2023-02-01T09:30:22;18.38;;;3.85;;
53775;SDS011;44276;49.534;6.378;2023-02-01T09:32:51;20.30;;;3.63;;
53775;SDS011;44276;49.534;6.378;2023-02-01T09:35:19;15.70;;;4.97;;
53775;SDS011;44276;49.534;6.378;2023-02-01T09:37:47;14.57;;;4.13;;
53775;SDS011;44276;49.534;6.378;2023-02-01T09:40:15;11.25;;;2.95;;
53775;SDS011;44276;49.534;6.378;2023-02-01T09:42:52;15.00;;;4.85;;
53775;SDS011;44276;49.534;6.378;2023-02-01T09:45:51;15.02;;;3.95;;
53775;SDS011;44276;49.534;6.378;2023-02-01T09:48:32;12.65;;;4.05;;
53775;SDS011;44276;49.534;6.378;2023-02-01T09:51:06;13.02;;;4.25;;
53775;SDS011;44276;49.534;6.378;2023-02-01T09:53:44;13.50;;;3.05;;
53775;SDS011;44276;49.534;6.378;2023-02-01T09:56:20;10.65;;;3.67;;
53775;SDS011;44276;49.534;6.378;2023-02-01T09:58:58;24.25;;;4.10;;
53775;SDS011;44276;49.534;6.378;2023-02-01T10:01:36;18.48;;;3.58;;
53775;SDS011;44276;49.534;6.378;2023-02-01T10:04:05;13.63;;;3.72;;
53775;SDS011;44276;49.534;6.378;2023-02-01T10:06:40;15.15;;;4.47;;
53775;SDS011;44276;49.534;6.378;2023-02-01T10:09:35;18.95;;;4.68;;
53775;SDS011;44276;49.534;6.378;2023-02-01T10:12:35;15.02;;;3.35;;
53775;SDS011;44276;49.534;6.378;2023-02-01T10:15:44;14.07;;;4.35;;
53775;SDS011;44276;49.534;6.378;2023-02-01T10:18:33;14.35;;;3.20;;
53775;SDS011;44276;49.534;6.378;2023-02-01T10:21:23;10.95;;;3.15;;
53775;SDS011;44276;49.534;6.378;2023-02-01T10:24:20;26.75;;;4.38;;
53775;SDS011;44276;49.534;6.378;2023-02-01T10:27:12;15.32;;;3.67;;
53775;SDS011;44276;49.534;6.378;2023-02-01T10:29:46;10.25;;;2.45;;
53775;SDS011;44276;49.534;6.378;2023-02-01T10:32:23;14.02;;;3.40;;
53775;SDS011;44276;49.534;6.378;2023-02-01T10:34:57;21.05;;;3.65;;
53775;SDS011;44276;49.534;6.378;2023-02-01T10:37:28;23.17;;;3.38;;
53775;SDS011;44276;49.534;6.378;2023-02-01T10:40:00;14.77;;;3.08;;
53775;SDS011;44276;49.534;6.378;2023-02-01T10:42:39;22.08;;;3.72;;
53775;SDS011;44276;49.534;6.378;2023-02-01T10:45:11;14.40;;;4.43;;
53775;SDS011;44276;49.534;6.378;2023-02-01T10:47:46;15.40;;;4.18;;
53775;SDS011;44276;49.534;6.378;2023-02-01T10:50:18;13.82;;;3.67;;
53775;SDS011;44276;49.534;6.378;2023-02-01T10:53:01;16.88;;;4.70;;
53775;SDS011;44276;49.534;6.378;2023-02-01T10:55:39;14.15;;;3.20;;
53775;SDS011;44276;49.534;6.378;2023-02-01T10:58:15;12.00;;;3.95;;
53775;SDS011;44276;49.534;6.378;2023-02-01T11:00:46;7.30;;;2.58;;
53775;SDS011;44276;49.534;6.378;2023-02-01T11:08:45;7.63;;;2.05;;
53775;SDS011;44276;49.534;6.378;2023-02-01T11:11:17;9.80;;;4.38;;
53775;SDS011;44276;49.534;6.378;2023-02-01T11:13:51;20.20;;;3.13;;
53775;SDS011;44276;49.534;6.378;2023-02-01T11:16:28;16.05;;;3.20;;
53775;SDS011;44276;49.534;6.378;2023-02-01T11:19:03;15.90;;;3.05;;
53775;SDS011;44276;49.534;6.378;2023-02-01T11:21:33;16.58;;;3.83;;
53775;SDS011;44276;49.534;6.378;2023-02-01T11:24:04;21.85;;;4.00;;
53775;SDS011;44276;49.534;6.378;2023-02-01T11:26:45;16.70;;;4.90;;
53775;SDS011;44276;49.534;6.378;2023-02-01T11:29:14;16.00;;;2.67;;
53775;SDS011;44276;49.534;6.378;2023-02-01T11:31:49;25.33;;;4.05;;
53775;SDS011;44276;49.534;6.378;2023-02-01T11:34:20;12.95;;;3.45;;
53775;SDS011;44276;49.534;6.378;2023-02-01T11:36:52;17.23;;;3.58;;
53775;SDS011;44276;49.534;6.378;2023-02-01T11:39:29;12.20;;;2.45;;
53775;SDS011;44276;49.534;6.378;2023-02-01T11:42:01;10.90;;;2.63;;
53775;SDS011;44276;49.534;6.378;2023-02-01T11:44:34;11.57;;;2.85;;
53775;SDS011;44276;49.534;6.378;2023-02-01T11:47:18;10.05;;;2.85;;
53775;SDS011;44276;49.534;6.378;2023-02-01T11:49:50;12.15;;;2.88;;
53775;SDS011;44276;49.534;6.378;2023-02-01T11:52:25;17.38;;;3.22;;
53775;SDS011;44276;49.534;6.378;2023-02-01T11:55:18;21.02;;;3.30;;
53775;SDS011;44276;49.534;6.378;2023-02-01T11:58:06;12.63;;;4.30;;
53775;SDS011;44276;49.534;6.378;2023-02-01T12:00:58;13.25;;;3.15;;
53775;SDS011;44276;49.534;6.378;2023-02-01T12:03:56;12.43;;;2.47;;
53775;SDS011;44276;49.534;6.378;2023-02-01T12:06:48;10.18;;;2.50;;
53775;SDS011;44276;49.534;6.378;2023-02-01T12:09:31;17.13;;;4.00;;
53775;SDS011;44276;49.534;6.378;2023-02-01T12:12:17;14.82;;;2.83;;
53775;SDS011;44276;49.534;6.378;2023-02-01T12:14:59;8.23;;;3.13;;
53775;SDS011;44276;49.534;6.378;2023-02-01T12:17:59;14.02;;;3.53;;
53775;SDS011;44276;49.534;6.378;2023-02-01T12:23:56;7.55;;;2.42;;
53775;SDS011;44276;49.534;6.378;2023-02-01T12:26:56;18.23;;;2.88;;
53775;SDS011;44276;49.534;6.378;2023-02-01T12:30:02;14.68;;;2.58;;
53775;SDS011;44276;49.534;6.378;2023-02-01T12:33:17;9.75;;;3.20;;
53775;SDS011;44276;49.534;6.378;2023-02-01T12:36:05;12.20;;;2.83;;
53775;SDS011;44276;49.534;6.378;2023-02-01T12:38:55;17.02;;;5.35;;
53775;SDS011;44276;49.534;6.378;2023-02-01T12:41:45;7.05;;;2.65;;
53775;SDS011;44276;49.534;6.378;2023-02-01T12:44:27;18.38;;;4.22;;
53775;SDS011;44276;49.534;6.378;2023-02-01T12:47:05;18.08;;;4.68;;
53775;SDS011;44276;49.534;6.378;2023-02-01T12:49:45;16.35;;;3.10;;
53775;SDS011;44276;49.534;6.378;2023-02-01T12:52:30;15.25;;;2.97;;
53775;SDS011;44276;49.534;6.378;2023-02-01T12:55:14;14.90;;;2.95;;
53775;SDS011;44276;49.534;6.378;2023-02-01T12:57:50;11.18;;;3.88;;
53775;SDS011;44276;49.534;6.378;2023-02-01T13:00:25;17.35;;;3.85;;
53775;SDS011;44276;49.534;6.378;2023-02-01T13:03:03;14.45;;;2.72;;
53775;SDS011;44276;49.534;6.378;2023-02-01T13:05:48;17.27;;;4.32;;
53775;SDS011;44276;49.534;6.378;2023-02-01T13:08:26;16.30;;;2.92;;
53775;SDS011;44276;49.534;6.378;2023-02-01T13:11:10;11.02;;;2.83;;
53775;SDS011;44276;49.534;6.378;2023-02-01T13:13:48;15.95;;;2.53;;
53775;SDS011;44276;49.534;6.378;2023-02-01T13:16:26;7.80;;;2.22;;
53775;SDS011;44276;49.534;6.378;2023-02-01T13:19:00;11.65;;;4.10;;
53775;SDS011;44276;49.534;6.378;2023-02-01T13:21:42;11.65;;;1.95;;
53775;SDS011;44276;49.534;6.378;2023-02-01T13:24:20;11.88;;;3.72;;
53775;SDS011;44276;49.534;6.378;2023-02-01T13:27:08;22.73;;;3.00;;
53775;SDS011;44276;49.534;6.378;2023-02-01T13:29:41;15.68;;;2.55;;
53775;SDS011;44276;49.534;6.378;2023-02-01T13:32:37;13.85;;;2.95;;
53775;SDS011;44276;49.534;6.378;2023-02-01T13:35:54;13.00;;;2.03;;
53775;SDS011;44276;49.534;6.378;2023-02-01T13:42:13;11.88;;;2.67;;
53775;SDS011;44276;49.534;6.378;2023-02-01T13:44:47;19.75;;;4.03;;
53775;SDS011;44276;49.534;6.378;2023-02-01T13:47:22;10.95;;;1.70;;
53775;SDS011;44276;49.534;6.378;2023-02-01T13:49:56;6.22;;;2.30;;
53775;SDS011;44276;49.534;6.378;2023-02-01T13:52:36;5.78;;;1.65;;
53775;SDS011;44276;49.534;6.378;2023-02-01T13:55:15;8.25;;;2.42;;
53775;SDS011;44276;49.534;6.378;2023-02-01T13:58:03;10.15;;;2.28;;
53775;SDS011;44276;49.534;6.378;2023-02-01T14:00:45;10.32;;;1.90;;
53775;SDS011;44276;49.534;6.378;2023-02-01T14:03:18;12.93;;;2.08;;
53775;SDS011;44276;49.534;6.378;2023-02-01T14:09:17;6.15;;;1.20;;
53775;SDS011;44276;49.534;6.378;2023-02-01T14:15:20;9.73;;;2.15;;
53775;SDS011;44276;49.534;6.378;2023-02-01T14:17:52;8.45;;;2.42;;
53775;SDS011;44276;49.534;6.378;2023-02-01T14:23:29;8.85;;;1.77;;
53775;SDS011;44276;49.534;6.378;2023-02-01T14:26:06;8.98;;;1.65;;
53775;SDS011;44276;49.534;6.378;2023-02-01T14:28:40;9.30;;;1.83;;
53775;SDS011;44276;49.534;6.378;2023-02-01T14:31:23;13.63;;;1.85;;
53775;SDS011;44276;49.534;6.378;2023-02-01T14:34:30;8.05;;;2.35;;
53775;SDS011;44276;49.534;6.378;2023-02-01T14:37:09;11.27;;;2.10;;
53775;SDS011;44276;49.534;6.378;2023-02-01T14:39:53;14.43;;;2.15;;
53775;SDS011;44276;49.534;6.378;2023-02-01T14:42:29;11.35;;;1.85;;
53775;SDS011;44276;49.534;6.378;2023-02-01T14:51:15;6.95;;;1.90;;
53775;SDS011;44276;49.534;6.378;2023-02-01T14:53:46;17.88;;;2.42;;
53775;SDS011;44276;49.534;6.378;2023-02-01T14:56:16;10.77;;;1.63;;
53775;SDS011;44276;49.534;6.378;2023-02-01T14:58:49;10.20;;;3.33;;
53775;SDS011;44276;49.534;6.378;2023-02-01T15:01:25;5.68;;;2.20;;
53775;SDS011;44276;49.534;6.378;2023-02-01T15:04:03;20.75;;;3.35;;
53775;SDS011;44276;49.534;6.378;2023-02-01T15:06:36;16.93;;;4.10;;
53775;SDS011;44276;49.534;6.378;2023-02-01T15:09:08;13.02;;;2.47;;
53775;SDS011;44276;49.534;6.378;2023-02-01T15:11:54;7.80;;;1.58;;
53775;SDS011;44276;49.534;6.378;2023-02-01T15:14:29;16.48;;;3.35;;
53775;SDS011;44276;49.534;6.378;2023-02-01T15:17:00;12.38;;;2.95;;
53775;SDS011;44276;49.534;6.378;2023-02-01T15:19:31;9.35;;;2.28;;
53775;SDS011;44276;49.534;6.378;2023-02-01T15:21:59;7.68;;;2.10;;
53775;SDS011;44276;49.534;6.378;2023-02-01T15:24:29;13.32;;;3.15;;
53775;SDS011;44276;49.534;6.378;2023-02-01T15:27:02;10.35;;;2.20;;
53775;SDS011;44276;49.534;6.378;2023-02-01T15:29:33;21.15;;;2.53;;
53775;SDS011;44276;49.534;6.378;2023-02-01T15:32:01;13.82;;;4.40;;
53775;SDS011;44276;49.534;6.378;2023-02-01T15:37:17;9.88;;;1.88;;
53775;SDS011;44276;49.534;6.378;2023-02-01T15:42:53;14.00;;;2.88;;
53775;SDS011;44276;49.534;6.378;2023-02-01T15:45:25;14.35;;;2.78;;
53775;SDS011;44276;49.534;6.378;2023-02-01T15:47:59;12.80;;;2.20;;
53775;SDS011;44276;49.534;6.378;2023-02-01T15:50:29;9.95;;;2.38;;
53775;SDS011;44276;49.534;6.378;2023-02-01T15:53:00;15.45;;;2.05;;
53775;SDS011;44276;49.534;6.378;2023-02-01T15:55:31;9.52;;;2.55;;
53775;SDS011;44276;49.534;6.378;2023-02-01T15:58:09;7.93;;;2.35;;
53775;SDS011;44276;49.534;6.378;2023-02-01T16:03:34;13.57;;;3.35;;